sensor_id;sensor_type;location;lat;lon;timestamp;P1;durP1;ratioP1;P2;durP2;ratioP2
2029;SDS011;1020;48.854;8.830;2023-02-28T00:01:18;3.10;;;2.90;;
2029;SDS011;1020;48.854;8.830;2023-02-28T00:03:45;3.03;;;2.83;;
2029;SDS011;1020;48.854;8.830;2023-02-28T00:06:12;3.20;;;2.90;;
2029;SDS011;1020;48.854;8.830;2023-02-28T00:08:39;3.10;;;2.77;;
2029;SDS011;1020;48.854;8.830;2023-02-28T00:11:06;3.57;;;3.27;;
2029;SDS011;1020;48.854;8.830;2023-02-28T00:13:36;3.50;;;3.20;;
2029;SDS011;1020;48.854;8.830;2023-02-28T00:16:05;3.60;;;3.33;;
2029;SDS011;1020;48.854;8.830;2023-02-28T00:18:34;3.47;;;3.17;;
2029;SDS011;1020;48.854;8.830;2023-02-28T00:21:01;4.17;;;3.77;;
2029;SDS011;1020;48.854;8.830;2023-02-28T00:23:27;4.00;;;3.70;;
2029;SDS011;1020;48.854;8.830;2023-02-28T00:25:54;3.80;;;3.50;;
2029;SDS011;1020;48.854;8.830;2023-02-28T00:28:22;5.10;;;3.60;;
2029;SDS011;1020;48.854;8.830;2023-02-28T00:30:50;4.40;;;3.47;;
2029;SDS011;1020;48.854;8.830;2023-02-28T00:33:17;4.63;;;3.90;;
2029;SDS011;1020;48.854;8.830;2023-02-28T00:35:43;5.50;;;5.10;;
2029;SDS011;1020;48.854;8.830;2023-02-28T00:38:11;4.27;;;3.87;;
2029;SDS011;1020;48.854;8.830;2023-02-28T00:40:38;4.53;;;4.00;;
2029;SDS011;1020;48.854;8.830;2023-02-28T00:43:05;4.73;;;4.17;;
2029;SDS011;1020;48.854;8.830;2023-02-28T00:45:32;4.50;;;3.70;;
2029;SDS011;1020;48.854;8.830;2023-02-28T00:48:00;4.80;;;4.40;;
2029;SDS011;1020;48.854;8.830;2023-02-28T00:50:26;4.60;;;4.20;;
2029;SDS011;1020;48.854;8.830;2023-02-28T00:52:53;4.97;;;4.47;;
2029;SDS011;1020;48.854;8.830;2023-02-28T00:55:20;4.33;;;3.93;;
2029;SDS011;1020;48.854;8.830;2023-02-28T00:57:46;6.23;;;4.60;;
2029;SDS011;1020;48.854;8.830;2023-02-28T01:00:13;7.00;;;3.97;;
2029;SDS011;1020;48.854;8.830;2023-02-28T01:02:41;4.70;;;4.00;;
2029;SDS011;1020;48.854;8.830;2023-02-28T01:05:09;5.90;;;4.10;;
2029;SDS011;1020;48.854;8.830;2023-02-28T01:07:36;5.00;;;4.60;;
2029;SDS011;1020;48.854;8.830;2023-02-28T01:10:03;4.33;;;3.93;;
2029;SDS011;1020;48.854;8.830;2023-02-28T01:12:30;4.50;;;4.10;;
2029;SDS011;1020;48.854;8.830;2023-02-28T01:14:57;6.47;;;4.50;;
2029;SDS011;1020;48.854;8.830;2023-02-28T01:17:24;5.37;;;4.90;;
2029;SDS011;1020;48.854;8.830;2023-02-28T01:19:52;4.70;;;4.30;;
2029;SDS011;1020;48.854;8.830;2023-02-28T01:22:21;4.67;;;4.27;;
2029;SDS011;1020;48.854;8.830;2023-02-28T01:24:48;4.73;;;4.07;;
2029;SDS011;1020;48.854;8.830;2023-02-28T01:27:15;5.63;;;5.13;;
2029;SDS011;1020;48.854;8.830;2023-02-28T01:29:41;6.23;;;4.30;;
2029;SDS011;1020;48.854;8.830;2023-02-28T01:32:08;5.50;;;5.00;;
2029;SDS011;1020;48.854;8.830;2023-02-28T01:34:35;7.00;;;5.10;;
2029;SDS011;1020;48.854;8.830;2023-02-28T01:37:01;5.30;;;4.80;;
2029;SDS011;1020;48.854;8.830;2023-02-28T01:39:29;4.93;;;4.53;;
2029;SDS011;1020;48.854;8.830;2023-02-28T01:41:56;5.77;;;5.10;;
2029;SDS011;1020;48.854;8.830;2023-02-28T01:47:22;5.87;;;4.97;;
2029;SDS011;1020;48.854;8.830;2023-02-28T01:49:51;5.87;;;5.30;;
2029;SDS011;1020;48.854;8.830;2023-02-28T01:52:18;6.07;;;5.33;;
2029;SDS011;1020;48.854;8.830;2023-02-28T01:54:48;5.87;;;5.30;;
2029;SDS011;1020;48.854;8.830;2023-02-28T01:57:18;5.37;;;4.80;;
2029;SDS011;1020;48.854;8.830;2023-02-28T01:59:50;7.53;;;5.80;;
2029;SDS011;1020;48.854;8.830;2023-02-28T02:02:20;6.53;;;5.40;;
2029;SDS011;1020;48.854;8.830;2023-02-28T02:04:50;5.03;;;4.53;;
2029;SDS011;1020;48.854;8.830;2023-02-28T02:07:20;6.33;;;5.63;;
2029;SDS011;1020;48.854;8.830;2023-02-28T02:09:49;5.93;;;5.33;;
2029;SDS011;1020;48.854;8.830;2023-02-28T02:12:19;6.17;;;5.57;;
2029;SDS011;1020;48.854;8.830;2023-02-28T02:14:58;5.97;;;5.47;;
2029;SDS011;1020;48.854;8.830;2023-02-28T02:17:31;6.30;;;5.70;;
2029;SDS011;1020;48.854;8.830;2023-02-28T02:20:27;5.63;;;5.13;;
2029;SDS011;1020;48.854;8.830;2023-02-28T02:23:18;5.50;;;5.00;;
2029;SDS011;1020;48.854;8.830;2023-02-28T02:26:34;6.80;;;5.63;;
2029;SDS011;1020;48.854;8.830;2023-02-28T02:29:31;6.17;;;5.57;;
2029;SDS011;1020;48.854;8.830;2023-02-28T02:35:32;5.83;;;5.33;;
2029;SDS011;1020;48.854;8.830;2023-02-28T02:38:06;6.87;;;6.27;;
2029;SDS011;1020;48.854;8.830;2023-02-28T02:40:38;5.40;;;4.90;;
2029;SDS011;1020;48.854;8.830;2023-02-28T02:43:11;5.63;;;5.13;;
2029;SDS011;1020;48.854;8.830;2023-02-28T02:45:44;7.10;;;5.80;;
2029;SDS011;1020;48.854;8.830;2023-02-28T02:48:16;6.00;;;5.50;;
2029;SDS011;1020;48.854;8.830;2023-02-28T02:50:49;5.63;;;5.13;;
2029;SDS011;1020;48.854;8.830;2023-02-28T02:53:20;6.57;;;5.97;;
2029;SDS011;1020;48.854;8.830;2023-02-28T02:55:50;5.83;;;5.33;;
2029;SDS011;1020;48.854;8.830;2023-02-28T02:58:20;5.83;;;5.23;;
2029;SDS011;1020;48.854;8.830;2023-02-28T03:00:51;5.47;;;5.00;;
2029;SDS011;1020;48.854;8.830;2023-02-28T03:03:21;5.87;;;5.37;;
2029;SDS011;1020;48.854;8.830;2023-02-28T03:05:55;6.33;;;5.77;;
2029;SDS011;1020;48.854;8.830;2023-02-28T03:08:23;6.60;;;6.00;;
2029;SDS011;1020;48.854;8.830;2023-02-28T03:10:50;7.10;;;6.40;;
2029;SDS011;1020;48.854;8.830;2023-02-28T03:22:08;6.40;;;5.73;;
2029;SDS011;1020;48.854;8.830;2023-02-28T03:24:43;5.93;;;5.47;;
2029;SDS011;1020;48.854;8.830;2023-02-28T03:27:16;6.63;;;5.93;;
2029;SDS011;1020;48.854;8.830;2023-02-28T03:29:50;5.83;;;5.33;;
2029;SDS011;1020;48.854;8.830;2023-02-28T03:32:24;5.87;;;5.20;;
2029;SDS011;1020;48.854;8.830;2023-02-28T03:34:55;6.07;;;5.57;;
2029;SDS011;1020;48.854;8.830;2023-02-28T03:37:29;5.63;;;5.13;;
2029;SDS011;1020;48.854;8.830;2023-02-28T03:40:01;6.93;;;6.33;;
2029;SDS011;1020;48.854;8.830;2023-02-28T03:42:31;6.67;;;6.07;;
2029;SDS011;1020;48.854;8.830;2023-02-28T03:45:03;9.80;;;6.20;;
2029;SDS011;1020;48.854;8.830;2023-02-28T03:47:35;6.40;;;5.80;;
2029;SDS011;1020;48.854;8.830;2023-02-28T03:50:06;6.60;;;6.00;;
2029;SDS011;1020;48.854;8.830;2023-02-28T03:52:39;6.63;;;6.03;;
2029;SDS011;1020;48.854;8.830;2023-02-28T03:55:11;7.17;;;5.90;;
2029;SDS011;1020;48.854;8.830;2023-02-28T03:57:40;6.13;;;5.57;;
2029;SDS011;1020;48.854;8.830;2023-02-28T04:00:14;6.63;;;6.00;;
2029;SDS011;1020;48.854;8.830;2023-02-28T04:02:45;7.90;;;6.40;;
2029;SDS011;1020;48.854;8.830;2023-02-28T04:05:17;6.90;;;6.30;;
2029;SDS011;1020;48.854;8.830;2023-02-28T04:07:45;6.93;;;6.20;;
2029;SDS011;1020;48.854;8.830;2023-02-28T04:10:13;6.43;;;5.83;;
2029;SDS011;1020;48.854;8.830;2023-02-28T04:12:41;6.47;;;5.87;;
2029;SDS011;1020;48.854;8.830;2023-02-28T04:15:08;7.53;;;6.37;;
2029;SDS011;1020;48.854;8.830;2023-02-28T04:17:35;6.73;;;6.10;;
2029;SDS011;1020;48.854;8.830;2023-02-28T04:20:02;10.03;;;6.40;;
2029;SDS011;1020;48.854;8.830;2023-02-28T04:22:34;6.73;;;6.03;;
2029;SDS011;1020;48.854;8.830;2023-02-28T04:25:03;6.80;;;5.80;;
2029;SDS011;1020;48.854;8.830;2023-02-28T04:27:31;7.33;;;6.20;;
2029;SDS011;1020;48.854;8.830;2023-02-28T04:29:58;8.23;;;5.33;;
2029;SDS011;1020;48.854;8.830;2023-02-28T04:32:24;7.20;;;6.60;;
2029;SDS011;1020;48.854;8.830;2023-02-28T04:34:51;7.13;;;6.53;;
2029;SDS011;1020;48.854;8.830;2023-02-28T04:37:18;8.20;;;7.50;;
2029;SDS011;1020;48.854;8.830;2023-02-28T04:39:45;7.03;;;6.33;;
2029;SDS011;1020;48.854;8.830;2023-02-28T04:42:13;7.23;;;6.53;;
2029;SDS011;1020;48.854;8.830;2023-02-28T04:44:40;7.30;;;6.70;;
2029;SDS011;1020;48.854;8.830;2023-02-28T04:47:06;7.43;;;6.77;;
2029;SDS011;1020;48.854;8.830;2023-02-28T04:49:33;6.80;;;5.90;;
2029;SDS011;1020;48.854;8.830;2023-02-28T04:52:00;7.00;;;6.23;;
2029;SDS011;1020;48.854;8.830;2023-02-28T04:54:27;8.43;;;6.10;;
2029;SDS011;1020;48.854;8.830;2023-02-28T04:56:54;10.07;;;7.00;;
2029;SDS011;1020;48.854;8.830;2023-02-28T04:59:23;7.30;;;6.37;;
2029;SDS011;1020;48.854;8.830;2023-02-28T05:01:50;7.93;;;7.07;;
2029;SDS011;1020;48.854;8.830;2023-02-28T05:04:17;7.83;;;6.40;;
2029;SDS011;1020;48.854;8.830;2023-02-28T05:06:44;8.67;;;6.63;;
2029;SDS011;1020;48.854;8.830;2023-02-28T05:09:10;7.13;;;6.43;;
2029;SDS011;1020;48.854;8.830;2023-02-28T05:11:37;7.37;;;6.67;;
2029;SDS011;1020;48.854;8.830;2023-02-28T05:14:05;8.27;;;7.10;;
2029;SDS011;1020;48.854;8.830;2023-02-28T05:16:36;9.60;;;6.43;;
2029;SDS011;1020;48.854;8.830;2023-02-28T05:19:03;7.30;;;6.60;;
2029;SDS011;1020;48.854;8.830;2023-02-28T05:21:31;9.00;;;6.80;;
2029;SDS011;1020;48.854;8.830;2023-02-28T05:23:59;7.47;;;6.67;;
2029;SDS011;1020;48.854;8.830;2023-02-28T05:26:28;7.73;;;6.73;;
2029;SDS011;1020;48.854;8.830;2023-02-28T05:28:55;6.87;;;6.20;;
2029;SDS011;1020;48.854;8.830;2023-02-28T05:31:22;7.43;;;6.73;;
2029;SDS011;1020;48.854;8.830;2023-02-28T05:33:51;7.00;;;6.30;;
2029;SDS011;1020;48.854;8.830;2023-02-28T05:36:18;10.30;;;7.10;;
2029;SDS011;1020;48.854;8.830;2023-02-28T05:38:46;7.97;;;7.17;;
2029;SDS011;1020;48.854;8.830;2023-02-28T05:41:13;6.97;;;6.30;;
2029;SDS011;1020;48.854;8.830;2023-02-28T05:43:40;8.67;;;7.57;;
2029;SDS011;1020;48.854;8.830;2023-02-28T05:46:08;7.30;;;6.60;;
2029;SDS011;1020;48.854;8.830;2023-02-28T05:48:36;8.20;;;7.40;;
2029;SDS011;1020;48.854;8.830;2023-02-28T05:51:05;9.43;;;6.87;;
2029;SDS011;1020;48.854;8.830;2023-02-28T05:53:33;8.07;;;6.87;;
2029;SDS011;1020;48.854;8.830;2023-02-28T05:56:00;8.07;;;7.27;;
2029;SDS011;1020;48.854;8.830;2023-02-28T05:58:27;8.93;;;7.83;;
2029;SDS011;1020;48.854;8.830;2023-02-28T06:00:55;8.63;;;7.10;;
2029;SDS011;1020;48.854;8.830;2023-02-28T06:03:23;9.23;;;6.87;;
2029;SDS011;1020;48.854;8.830;2023-02-28T06:05:49;6.80;;;6.10;;
2029;SDS011;1020;48.854;8.830;2023-02-28T06:08:18;9.77;;;7.97;;
2029;SDS011;1020;48.854;8.830;2023-02-28T06:10:45;8.33;;;7.50;;
2029;SDS011;1020;48.854;8.830;2023-02-28T06:13:11;8.87;;;8.00;;
2029;SDS011;1020;48.854;8.830;2023-02-28T06:15:38;7.07;;;6.37;;
2029;SDS011;1020;48.854;8.830;2023-02-28T06:18:05;9.47;;;7.63;;
2029;SDS011;1020;48.854;8.830;2023-02-28T06:20:32;7.73;;;7.00;;
2029;SDS011;1020;48.854;8.830;2023-02-28T06:22:59;8.20;;;7.30;;
2029;SDS011;1020;48.854;8.830;2023-02-28T06:25:27;7.67;;;6.90;;
2029;SDS011;1020;48.854;8.830;2023-02-28T06:27:54;9.37;;;7.33;;
2029;SDS011;1020;48.854;8.830;2023-02-28T06:30:21;11.70;;;8.00;;
2029;SDS011;1020;48.854;8.830;2023-02-28T06:32:50;8.60;;;7.70;;
2029;SDS011;1020;48.854;8.830;2023-02-28T06:35:17;7.50;;;6.80;;
2029;SDS011;1020;48.854;8.830;2023-02-28T06:37:43;8.10;;;7.30;;
2029;SDS011;1020;48.854;8.830;2023-02-28T06:40:12;9.40;;;8.10;;
2029;SDS011;1020;48.854;8.830;2023-02-28T06:42:40;7.20;;;6.50;;
2029;SDS011;1020;48.854;8.830;2023-02-28T06:45:07;8.77;;;7.90;;
2029;SDS011;1020;48.854;8.830;2023-02-28T06:47:35;7.13;;;6.40;;
2029;SDS011;1020;48.854;8.830;2023-02-28T06:50:03;8.13;;;7.43;;
2029;SDS011;1020;48.854;8.830;2023-02-28T06:52:30;8.13;;;7.33;;
2029;SDS011;1020;48.854;8.830;2023-02-28T06:54:57;8.63;;;7.17;;
2029;SDS011;1020;48.854;8.830;2023-02-28T06:57:26;8.90;;;7.53;;
2029;SDS011;1020;48.854;8.830;2023-02-28T06:59:57;7.27;;;6.37;;
2029;SDS011;1020;48.854;8.830;2023-02-28T07:02:24;7.03;;;6.33;;
2029;SDS011;1020;48.854;8.830;2023-02-28T07:04:51;8.30;;;7.10;;
2029;SDS011;1020;48.854;8.830;2023-02-28T07:07:18;7.20;;;6.40;;
2029;SDS011;1020;48.854;8.830;2023-02-28T07:09:44;10.60;;;7.80;;
2029;SDS011;1020;48.854;8.830;2023-02-28T07:12:11;7.67;;;6.87;;
2029;SDS011;1020;48.854;8.830;2023-02-28T07:14:38;8.60;;;7.73;;
2029;SDS011;1020;48.854;8.830;2023-02-28T07:17:07;9.30;;;7.30;;
2029;SDS011;1020;48.854;8.830;2023-02-28T07:19:36;8.87;;;7.30;;
2029;SDS011;1020;48.854;8.830;2023-02-28T07:22:03;8.50;;;7.53;;
2029;SDS011;1020;48.854;8.830;2023-02-28T07:24:30;10.40;;;7.60;;
2029;SDS011;1020;48.854;8.830;2023-02-28T07:26:57;8.90;;;7.03;;
2029;SDS011;1020;48.854;8.830;2023-02-28T07:29:24;8.03;;;7.27;;
2029;SDS011;1020;48.854;8.830;2023-02-28T07:31:51;9.40;;;7.60;;
2029;SDS011;1020;48.854;8.830;2023-02-28T07:34:19;8.03;;;7.23;;
2029;SDS011;1020;48.854;8.830;2023-02-28T07:36:46;7.67;;;6.97;;
2029;SDS011;1020;48.854;8.830;2023-02-28T07:39:13;10.37;;;8.67;;
2029;SDS011;1020;48.854;8.830;2023-02-28T07:41:40;10.77;;;7.90;;
2029;SDS011;1020;48.854;8.830;2023-02-28T07:44:09;9.30;;;8.07;;
2029;SDS011;1020;48.854;8.830;2023-02-28T07:46:35;8.70;;;7.77;;
2029;SDS011;1020;48.854;8.830;2023-02-28T07:49:03;9.20;;;8.30;;
2029;SDS011;1020;48.854;8.830;2023-02-28T07:51:32;8.17;;;7.37;;
2029;SDS011;1020;48.854;8.830;2023-02-28T07:53:58;8.80;;;6.73;;
2029;SDS011;1020;48.854;8.830;2023-02-28T07:56:25;7.80;;;7.10;;
2029;SDS011;1020;48.854;8.830;2023-02-28T07:58:52;8.80;;;8.00;;
2029;SDS011;1020;48.854;8.830;2023-02-28T08:01:19;9.00;;;7.70;;
2029;SDS011;1020;48.854;8.830;2023-02-28T08:03:45;8.00;;;7.20;;
2029;SDS011;1020;48.854;8.830;2023-02-28T08:06:15;10.40;;;8.00;;
2029;SDS011;1020;48.854;8.830;2023-02-28T08:08:45;9.03;;;8.00;;
2029;SDS011;1020;48.854;8.830;2023-02-28T08:11:11;8.70;;;7.17;;
2029;SDS011;1020;48.854;8.830;2023-02-28T08:13:38;12.70;;;8.60;;
2029;SDS011;1020;48.854;8.830;2023-02-28T08:16:07;8.90;;;7.87;;
2029;SDS011;1020;48.854;8.830;2023-02-28T08:18:34;8.93;;;8.00;;
2029;SDS011;1020;48.854;8.830;2023-02-28T08:21:05;8.63;;;7.23;;
2029;SDS011;1020;48.854;8.830;2023-02-28T08:23:32;9.03;;;8.00;;
2029;SDS011;1020;48.854;8.830;2023-02-28T08:26:01;9.13;;;7.90;;
2029;SDS011;1020;48.854;8.830;2023-02-28T08:28:29;11.70;;;8.47;;
2029;SDS011;1020;48.854;8.830;2023-02-28T08:30:55;9.70;;;8.20;;
2029;SDS011;1020;48.854;8.830;2023-02-28T08:33:22;10.13;;;8.17;;
2029;SDS011;1020;48.854;8.830;2023-02-28T08:35:52;7.90;;;7.10;;
2029;SDS011;1020;48.854;8.830;2023-02-28T08:38:20;8.80;;;7.87;;
2029;SDS011;1020;48.854;8.830;2023-02-28T08:40:46;9.80;;;7.83;;
2029;SDS011;1020;48.854;8.830;2023-02-28T08:43:15;9.17;;;8.27;;
2029;SDS011;1020;48.854;8.830;2023-02-28T08:45:41;11.90;;;8.50;;
2029;SDS011;1020;48.854;8.830;2023-02-28T08:48:08;9.03;;;8.13;;
2029;SDS011;1020;48.854;8.830;2023-02-28T08:50:35;10.00;;;8.27;;
2029;SDS011;1020;48.854;8.830;2023-02-28T08:53:01;9.00;;;7.33;;
2029;SDS011;1020;48.854;8.830;2023-02-28T08:55:28;11.53;;;8.40;;
2029;SDS011;1020;48.854;8.830;2023-02-28T08:57:56;8.40;;;7.53;;
2029;SDS011;1020;48.854;8.830;2023-02-28T09:00:24;10.37;;;9.33;;
2029;SDS011;1020;48.854;8.830;2023-02-28T09:02:51;8.73;;;7.83;;
2029;SDS011;1020;48.854;8.830;2023-02-28T09:05:19;10.27;;;8.70;;
2029;SDS011;1020;48.854;8.830;2023-02-28T09:07:46;10.30;;;8.67;;
2029;SDS011;1020;48.854;8.830;2023-02-28T09:10:13;12.40;;;8.23;;
2029;SDS011;1020;48.854;8.830;2023-02-28T09:12:39;12.33;;;8.93;;
2029;SDS011;1020;48.854;8.830;2023-02-28T09:15:07;11.13;;;9.00;;
2029;SDS011;1020;48.854;8.830;2023-02-28T09:17:36;10.80;;;8.73;;
2029;SDS011;1020;48.854;8.830;2023-02-28T09:20:03;10.23;;;8.57;;
2029;SDS011;1020;48.854;8.830;2023-02-28T09:22:30;10.50;;;8.60;;
2029;SDS011;1020;48.854;8.830;2023-02-28T09:24:57;10.23;;;9.23;;
2029;SDS011;1020;48.854;8.830;2023-02-28T09:27:24;10.80;;;9.07;;
2029;SDS011;1020;48.854;8.830;2023-02-28T09:29:51;8.73;;;7.63;;
2029;SDS011;1020;48.854;8.830;2023-02-28T09:32:17;10.07;;;8.43;;
2029;SDS011;1020;48.854;8.830;2023-02-28T09:34:45;10.83;;;8.80;;
2029;SDS011;1020;48.854;8.830;2023-02-28T09:37:12;10.00;;;8.87;;
2029;SDS011;1020;48.854;8.830;2023-02-28T09:39:39;9.60;;;8.60;;
2029;SDS011;1020;48.854;8.830;2023-02-28T09:42:05;10.33;;;9.23;;
2029;SDS011;1020;48.854;8.830;2023-02-28T09:44:43;10.83;;;7.93;;
2029;SDS011;1020;48.854;8.830;2023-02-28T09:47:24;9.10;;;8.20;;
2029;SDS011;1020;48.854;8.830;2023-02-28T09:49:57;10.73;;;9.13;;
2029;SDS011;1020;48.854;8.830;2023-02-28T09:52:29;11.00;;;9.93;;
2029;SDS011;1020;48.854;8.830;2023-02-28T09:54:59;12.43;;;10.33;;
2029;SDS011;1020;48.854;8.830;2023-02-28T09:57:38;10.87;;;9.70;;
2029;SDS011;1020;48.854;8.830;2023-02-28T10:00:10;10.10;;;8.90;;
2029;SDS011;1020;48.854;8.830;2023-02-28T10:02:46;10.50;;;9.40;;
2029;SDS011;1020;48.854;8.830;2023-02-28T10:05:21;9.13;;;8.27;;
2029;SDS011;1020;48.854;8.830;2023-02-28T10:10:39;15.33;;;11.73;;
2029;SDS011;1020;48.854;8.830;2023-02-28T10:13:11;10.87;;;9.77;;
2029;SDS011;1020;48.854;8.830;2023-02-28T10:15:42;12.13;;;10.20;;
2029;SDS011;1020;48.854;8.830;2023-02-28T10:18:13;11.03;;;9.83;;
2029;SDS011;1020;48.854;8.830;2023-02-28T10:20:47;9.07;;;8.23;;
2029;SDS011;1020;48.854;8.830;2023-02-28T10:23:17;11.03;;;9.70;;
2029;SDS011;1020;48.854;8.830;2023-02-28T10:25:48;11.20;;;9.27;;
2029;SDS011;1020;48.854;8.830;2023-02-28T10:28:20;11.00;;;9.80;;
2029;SDS011;1020;48.854;8.830;2023-02-28T10:30:47;11.60;;;10.37;;
2029;SDS011;1020;48.854;8.830;2023-02-28T10:33:17;9.27;;;8.37;;
2029;SDS011;1020;48.854;8.830;2023-02-28T10:35:49;11.47;;;10.27;;
2029;SDS011;1020;48.854;8.830;2023-02-28T10:38:17;10.77;;;9.67;;
2029;SDS011;1020;48.854;8.830;2023-02-28T10:40:46;9.87;;;8.90;;
2029;SDS011;1020;48.854;8.830;2023-02-28T10:43:22;11.93;;;9.67;;
2029;SDS011;1020;48.854;8.830;2023-02-28T10:45:55;11.17;;;9.97;;
2029;SDS011;1020;48.854;8.830;2023-02-28T10:48:29;11.97;;;9.83;;
2029;SDS011;1020;48.854;8.830;2023-02-28T10:51:02;11.60;;;9.93;;
2029;SDS011;1020;48.854;8.830;2023-02-28T10:53:32;10.43;;;9.23;;
2029;SDS011;1020;48.854;8.830;2023-02-28T10:56:06;11.23;;;10.13;;
2029;SDS011;1020;48.854;8.830;2023-02-28T10:58:46;11.47;;;9.00;;
2029;SDS011;1020;48.854;8.830;2023-02-28T11:01:16;10.53;;;9.43;;
2029;SDS011;1020;48.854;8.830;2023-02-28T11:03:45;12.17;;;10.90;;
2029;SDS011;1020;48.854;8.830;2023-02-28T11:06:15;11.63;;;9.40;;
2029;SDS011;1020;48.854;8.830;2023-02-28T11:08:45;10.37;;;9.37;;
2029;SDS011;1020;48.854;8.830;2023-02-28T11:11:14;10.67;;;9.57;;
2029;SDS011;1020;48.854;8.830;2023-02-28T11:13:42;11.87;;;10.23;;
2029;SDS011;1020;48.854;8.830;2023-02-28T11:16:11;11.50;;;10.40;;
2029;SDS011;1020;48.854;8.830;2023-02-28T11:18:41;10.77;;;9.60;;
2029;SDS011;1020;48.854;8.830;2023-02-28T11:21:16;10.03;;;9.10;;
2029;SDS011;1020;48.854;8.830;2023-02-28T11:23:46;9.90;;;8.90;;
2029;SDS011;1020;48.854;8.830;2023-02-28T11:26:17;11.07;;;9.97;;
2029;SDS011;1020;48.854;8.830;2023-02-28T11:29:03;9.33;;;8.33;;
2029;SDS011;1020;48.854;8.830;2023-02-28T11:31:37;11.33;;;10.13;;
2029;SDS011;1020;48.854;8.830;2023-02-28T11:34:20;10.90;;;9.80;;
2029;SDS011;1020;48.854;8.830;2023-02-28T11:36:52;9.80;;;8.80;;
2029;SDS011;1020;48.854;8.830;2023-02-28T11:39:21;10.20;;;9.17;;
2029;SDS011;1020;48.854;8.830;2023-02-28T11:41:55;10.03;;;8.93;;
2029;SDS011;1020;48.854;8.830;2023-02-28T11:44:39;10.83;;;9.73;;
2029;SDS011;1020;48.854;8.830;2023-02-28T11:47:21;10.83;;;9.83;;
2029;SDS011;1020;48.854;8.830;2023-02-28T11:50:01;9.60;;;8.60;;
2029;SDS011;1020;48.854;8.830;2023-02-28T11:52:48;10.23;;;9.23;;
2029;SDS011;1020;48.854;8.830;2023-02-28T11:55:20;11.00;;;10.00;;
2029;SDS011;1020;48.854;8.830;2023-02-28T11:58:02;12.10;;;10.50;;
2029;SDS011;1020;48.854;8.830;2023-02-28T12:00:42;11.40;;;10.20;;
2029;SDS011;1020;48.854;8.830;2023-02-28T12:03:27;11.17;;;10.07;;
2029;SDS011;1020;48.854;8.830;2023-02-28T12:06:09;10.53;;;9.53;;
2029;SDS011;1020;48.854;8.830;2023-02-28T12:08:47;10.90;;;9.90;;
2029;SDS011;1020;48.854;8.830;2023-02-28T12:11:25;11.30;;;10.30;;
2029;SDS011;1020;48.854;8.830;2023-02-28T12:14:14;12.87;;;10.17;;
2029;SDS011;1020;48.854;8.830;2023-02-28T12:17:10;11.30;;;10.23;;
2029;SDS011;1020;48.854;8.830;2023-02-28T12:19:47;10.50;;;9.50;;
2029;SDS011;1020;48.854;8.830;2023-02-28T12:22:28;11.03;;;9.93;;
2029;SDS011;1020;48.854;8.830;2023-02-28T12:25:05;11.50;;;10.30;;
2029;SDS011;1020;48.854;8.830;2023-02-28T12:27:57;10.77;;;9.87;;
2029;SDS011;1020;48.854;8.830;2023-02-28T12:30:25;14.13;;;11.70;;
2029;SDS011;1020;48.854;8.830;2023-02-28T12:32:55;12.20;;;10.97;;
2029;SDS011;1020;48.854;8.830;2023-02-28T12:35:28;13.30;;;11.73;;
2029;SDS011;1020;48.854;8.830;2023-02-28T12:38:01;12.47;;;11.20;;
2029;SDS011;1020;48.854;8.830;2023-02-28T12:40:34;12.40;;;10.13;;
2029;SDS011;1020;48.854;8.830;2023-02-28T12:43:11;11.70;;;10.60;;
2029;SDS011;1020;48.854;8.830;2023-02-28T12:45:41;11.20;;;10.00;;
2029;SDS011;1020;48.854;8.830;2023-02-28T12:48:14;11.63;;;10.43;;
2029;SDS011;1020;48.854;8.830;2023-02-28T12:50:55;13.43;;;9.87;;
2029;SDS011;1020;48.854;8.830;2023-02-28T12:53:23;10.30;;;9.40;;
2029;SDS011;1020;48.854;8.830;2023-02-28T12:55:56;10.97;;;10.17;;
2029;SDS011;1020;48.854;8.830;2023-02-28T12:58:32;11.23;;;10.17;;
2029;SDS011;1020;48.854;8.830;2023-02-28T13:01:13;12.67;;;10.10;;
2029;SDS011;1020;48.854;8.830;2023-02-28T13:04:05;10.20;;;9.30;;
2029;SDS011;1020;48.854;8.830;2023-02-28T13:07:05;10.23;;;9.33;;
2029;SDS011;1020;48.854;8.830;2023-02-28T13:09:39;11.53;;;10.47;;
2029;SDS011;1020;48.854;8.830;2023-02-28T13:12:13;9.63;;;8.73;;
2029;SDS011;1020;48.854;8.830;2023-02-28T13:14:41;11.30;;;10.27;;
2029;SDS011;1020;48.854;8.830;2023-02-28T13:17:12;10.30;;;9.37;;
2029;SDS011;1020;48.854;8.830;2023-02-28T13:19:45;10.77;;;9.77;;
2029;SDS011;1020;48.854;8.830;2023-02-28T13:22:35;10.33;;;9.40;;
2029;SDS011;1020;48.854;8.830;2023-02-28T13:25:14;11.17;;;10.13;;
2029;SDS011;1020;48.854;8.830;2023-02-28T13:31:34;10.30;;;9.27;;
2029;SDS011;1020;48.854;8.830;2023-02-28T13:34:41;10.43;;;9.53;;
2029;SDS011;1020;48.854;8.830;2023-02-28T13:37:33;9.97;;;9.07;;
2029;SDS011;1020;48.854;8.830;2023-02-28T13:43:01;11.97;;;10.20;;
2029;SDS011;1020;48.854;8.830;2023-02-28T13:45:28;11.90;;;10.80;;
2029;SDS011;1020;48.854;8.830;2023-02-28T13:48:03;9.90;;;9.00;;
2029;SDS011;1020;48.854;8.830;2023-02-28T13:50:33;9.73;;;8.93;;
2029;SDS011;1020;48.854;8.830;2023-02-28T13:56:06;10.13;;;9.20;;
2029;SDS011;1020;48.854;8.830;2023-02-28T13:58:46;9.63;;;8.83;;
2029;SDS011;1020;48.854;8.830;2023-02-28T14:01:35;9.80;;;8.80;;
2029;SDS011;1020;48.854;8.830;2023-02-28T14:04:23;9.80;;;8.90;;
2029;SDS011;1020;48.854;8.830;2023-02-28T14:07:16;9.70;;;8.70;;
2029;SDS011;1020;48.854;8.830;2023-02-28T14:09:48;9.40;;;8.50;;
2029;SDS011;1020;48.854;8.830;2023-02-28T14:15:38;10.87;;;9.73;;
2029;SDS011;1020;48.854;8.830;2023-02-28T14:18:13;9.77;;;8.93;;
2029;SDS011;1020;48.854;8.830;2023-02-28T14:20:47;9.07;;;8.20;;
2029;SDS011;1020;48.854;8.830;2023-02-28T14:23:19;9.40;;;8.60;;
2029;SDS011;1020;48.854;8.830;2023-02-28T14:25:59;10.10;;;9.17;;
2029;SDS011;1020;48.854;8.830;2023-02-28T14:28:37;10.07;;;8.53;;
2029;SDS011;1020;48.854;8.830;2023-02-28T14:31:17;10.23;;;9.23;;
2029;SDS011;1020;48.854;8.830;2023-02-28T14:34:12;10.20;;;9.30;;
2029;SDS011;1020;48.854;8.830;2023-02-28T14:36:48;9.63;;;8.80;;
2029;SDS011;1020;48.854;8.830;2023-02-28T14:39:18;10.07;;;9.27;;
2029;SDS011;1020;48.854;8.830;2023-02-28T14:41:48;10.30;;;9.37;;
2029;SDS011;1020;48.854;8.830;2023-02-28T14:44:16;10.73;;;9.70;;
2029;SDS011;1020;48.854;8.830;2023-02-28T14:46:45;10.93;;;9.90;;
2029;SDS011;1020;48.854;8.830;2023-02-28T14:49:17;10.57;;;9.67;;
2029;SDS011;1020;48.854;8.830;2023-02-28T14:51:46;10.27;;;9.37;;
2029;SDS011;1020;48.854;8.830;2023-02-28T14:54:16;10.27;;;9.47;;
2029;SDS011;1020;48.854;8.830;2023-02-28T14:56:48;11.63;;;10.53;;
2029;SDS011;1020;48.854;8.830;2023-02-28T14:59:24;11.10;;;10.00;;
2029;SDS011;1020;48.854;8.830;2023-02-28T15:04:54;10.77;;;9.00;;
2029;SDS011;1020;48.854;8.830;2023-02-28T15:07:22;10.60;;;9.70;;
2029;SDS011;1020;48.854;8.830;2023-02-28T15:10:07;11.20;;;10.10;;
2029;SDS011;1020;48.854;8.830;2023-02-28T15:12:41;10.77;;;9.77;;
2029;SDS011;1020;48.854;8.830;2023-02-28T15:15:16;11.27;;;10.07;;
2029;SDS011;1020;48.854;8.830;2023-02-28T15:17:44;12.17;;;11.07;;
2029;SDS011;1020;48.854;8.830;2023-02-28T15:20:15;12.00;;;10.90;;
2029;SDS011;1020;48.854;8.830;2023-02-28T15:22:44;13.23;;;11.93;;
2029;SDS011;1020;48.854;8.830;2023-02-28T15:25:15;10.07;;;9.17;;
2029;SDS011;1020;48.854;8.830;2023-02-28T15:27:45;13.03;;;10.47;;
2029;SDS011;1020;48.854;8.830;2023-02-28T15:30:15;19.23;;;11.20;;
2029;SDS011;1020;48.854;8.830;2023-02-28T15:32:43;10.93;;;9.93;;
2029;SDS011;1020;48.854;8.830;2023-02-28T15:35:17;11.67;;;10.47;;
2029;SDS011;1020;48.854;8.830;2023-02-28T15:37:46;11.17;;;10.03;;
2029;SDS011;1020;48.854;8.830;2023-02-28T15:40:23;11.30;;;10.30;;
2029;SDS011;1020;48.854;8.830;2023-02-28T15:43:00;12.50;;;10.33;;
2029;SDS011;1020;48.854;8.830;2023-02-28T15:45:37;11.70;;;10.70;;
2029;SDS011;1020;48.854;8.830;2023-02-28T15:48:13;11.67;;;10.53;;
2029;SDS011;1020;48.854;8.830;2023-02-28T15:50:43;11.77;;;10.77;;
2029;SDS011;1020;48.854;8.830;2023-02-28T15:53:14;10.97;;;9.97;;
2029;SDS011;1020;48.854;8.830;2023-02-28T15:55:44;10.90;;;9.90;;
2029;SDS011;1020;48.854;8.830;2023-02-28T15:58:17;12.10;;;10.57;;
2029;SDS011;1020;48.854;8.830;2023-02-28T16:00:58;11.80;;;10.73;;
2029;SDS011;1020;48.854;8.830;2023-02-28T16:03:37;10.43;;;9.40;;
2029;SDS011;1020;48.854;8.830;2023-02-28T16:06:24;11.50;;;10.50;;